sensor_id;sensor_type;location;lat;lon;timestamp;temperature;humidity
64062;DHT22;50308;47.438;-1.528;2023-05-07T00:00:28;17.40;90.50
64062;DHT22;50308;47.438;-1.528;2023-05-07T00:02:53;17.40;90.50
64062;DHT22;50308;47.438;-1.528;2023-05-07T00:05:19;17.40;90.70
64062;DHT22;50308;47.438;-1.528;2023-05-07T00:07:45;17.40;90.40
64062;DHT22;50308;47.438;-1.528;2023-05-07T00:10:10;17.40;90.30
64062;DHT22;50308;47.438;-1.528;2023-05-07T00:12:38;17.40;90.20
64062;DHT22;50308;47.438;-1.528;2023-05-07T00:15:04;17.40;90.20
64062;DHT22;50308;47.438;-1.528;2023-05-07T00:17:30;17.40;90.20
64062;DHT22;50308;47.438;-1.528;2023-05-07T00:19:56;17.40;90.30
64062;DHT22;50308;47.438;-1.528;2023-05-07T00:22:21;17.40;90.40
64062;DHT22;50308;47.438;-1.528;2023-05-07T00:24:47;17.40;90.40
64062;DHT22;50308;47.438;-1.528;2023-05-07T00:27:13;17.40;90.50
64062;DHT22;50308;47.438;-1.528;2023-05-07T00:29:39;17.40;90.60
64062;DHT22;50308;47.438;-1.528;2023-05-07T00:32:04;17.40;90.50
64062;DHT22;50308;47.438;-1.528;2023-05-07T00:34:30;17.40;90.50
64062;DHT22;50308;47.438;-1.528;2023-05-07T00:36:56;17.40;90.50
64062;DHT22;50308;47.438;-1.528;2023-05-07T00:39:21;17.40;90.40
64062;DHT22;50308;47.438;-1.528;2023-05-07T00:41:47;17.40;90.40
64062;DHT22;50308;47.438;-1.528;2023-05-07T00:44:13;17.30;90.40
64062;DHT22;50308;47.438;-1.528;2023-05-07T00:46:40;17.30;90.60
64062;DHT22;50308;47.438;-1.528;2023-05-07T00:49:06;17.30;90.50
64062;DHT22;50308;47.438;-1.528;2023-05-07T00:51:33;17.30;90.50
64062;DHT22;50308;47.438;-1.528;2023-05-07T00:54:02;17.30;90.50
64062;DHT22;50308;47.438;-1.528;2023-05-07T00:56:28;17.30;91.00
64062;DHT22;50308;47.438;-1.528;2023-05-07T00:58:53;17.30;90.60
64062;DHT22;50308;47.438;-1.528;2023-05-07T01:01:20;17.30;90.50
64062;DHT22;50308;47.438;-1.528;2023-05-07T01:03:45;17.30;90.40
64062;DHT22;50308;47.438;-1.528;2023-05-07T01:06:12;17.30;90.30
64062;DHT22;50308;47.438;-1.528;2023-05-07T01:08:39;17.30;90.40
64062;DHT22;50308;47.438;-1.528;2023-05-07T01:11:07;17.30;90.30
64062;DHT22;50308;47.438;-1.528;2023-05-07T01:13:34;17.30;90.20
64062;DHT22;50308;47.438;-1.528;2023-05-07T01:16:00;17.30;90.20
64062;DHT22;50308;47.438;-1.528;2023-05-07T01:18:26;17.30;90.20
64062;DHT22;50308;47.438;-1.528;2023-05-07T01:20:52;17.30;90.30
64062;DHT22;50308;47.438;-1.528;2023-05-07T01:23:18;17.30;90.30
64062;DHT22;50308;47.438;-1.528;2023-05-07T01:25:54;17.30;90.40
64062;DHT22;50308;47.438;-1.528;2023-05-07T01:28:20;17.30;90.50
64062;DHT22;50308;47.438;-1.528;2023-05-07T01:30:51;17.30;90.40
64062;DHT22;50308;47.438;-1.528;2023-05-07T01:33:21;17.30;90.50
64062;DHT22;50308;47.438;-1.528;2023-05-07T01:35:50;17.30;90.20
64062;DHT22;50308;47.438;-1.528;2023-05-07T01:38:18;17.30;90.20
64062;DHT22;50308;47.438;-1.528;2023-05-07T01:40:44;17.30;90.30
64062;DHT22;50308;47.438;-1.528;2023-05-07T01:43:10;17.40;90.30
64062;DHT22;50308;47.438;-1.528;2023-05-07T01:45:36;17.40;90.40
64062;DHT22;50308;47.438;-1.528;2023-05-07T01:48:03;17.40;90.40
64062;DHT22;50308;47.438;-1.528;2023-05-07T01:50:30;17.30;90.40
64062;DHT22;50308;47.438;-1.528;2023-05-07T01:52:56;17.40;90.50
64062;DHT22;50308;47.438;-1.528;2023-05-07T01:55:22;17.30;90.40
64062;DHT22;50308;47.438;-1.528;2023-05-07T01:57:49;17.30;90.50
64062;DHT22;50308;47.438;-1.528;2023-05-07T02:00:14;17.40;90.50
64062;DHT22;50308;47.438;-1.528;2023-05-07T02:02:40;17.40;90.40
64062;DHT22;50308;47.438;-1.528;2023-05-07T02:05:06;17.40;90.40
64062;DHT22;50308;47.438;-1.528;2023-05-07T02:07:32;17.40;90.50
64062;DHT22;50308;47.438;-1.528;2023-05-07T02:09:58;17.40;90.50
64062;DHT22;50308;47.438;-1.528;2023-05-07T02:12:23;17.40;90.60
64062;DHT22;50308;47.438;-1.528;2023-05-07T02:14:49;17.40;90.80
64062;DHT22;50308;47.438;-1.528;2023-05-07T02:17:15;17.40;90.70
64062;DHT22;50308;47.438;-1.528;2023-05-07T02:19:41;17.40;90.60
64062;DHT22;50308;47.438;-1.528;2023-05-07T02:22:07;17.40;90.50
64062;DHT22;50308;47.438;-1.528;2023-05-07T02:24:33;17.40;90.70
64062;DHT22;50308;47.438;-1.528;2023-05-07T02:26:58;17.40;90.70
64062;DHT22;50308;47.438;-1.528;2023-05-07T02:29:24;17.40;90.60
64062;DHT22;50308;47.438;-1.528;2023-05-07T02:31:50;17.40;90.50
64062;DHT22;50308;47.438;-1.528;2023-05-07T02:34:16;17.40;90.50
64062;DHT22;50308;47.438;-1.528;2023-05-07T02:36:42;17.30;90.50
64062;DHT22;50308;47.438;-1.528;2023-05-07T02:39:08;17.40;90.50
64062;DHT22;50308;47.438;-1.528;2023-05-07T02:41:34;17.30;90.50
64062;DHT22;50308;47.438;-1.528;2023-05-07T02:44:00;17.40;90.50
64062;DHT22;50308;47.438;-1.528;2023-05-07T02:46:25;17.40;90.60
64062;DHT22;50308;47.438;-1.528;2023-05-07T02:48:51;17.40;90.60
64062;DHT22;50308;47.438;-1.528;2023-05-07T02:51:20;17.40;90.60
64062;DHT22;50308;47.438;-1.528;2023-05-07T02:53:46;17.40;90.70
64062;DHT22;50308;47.438;-1.528;2023-05-07T02:56:12;17.30;90.70
64062;DHT22;50308;47.438;-1.528;2023-05-07T02:58:37;17.40;90.70
64062;DHT22;50308;47.438;-1.528;2023-05-07T03:01:08;17.40;90.80
64062;DHT22;50308;47.438;-1.528;2023-05-07T03:03:34;17.40;90.70
64062;DHT22;50308;47.438;-1.528;2023-05-07T03:06:00;17.40;90.70
64062;DHT22;50308;47.438;-1.528;2023-05-07T03:08:26;17.40;90.80
64062;DHT22;50308;47.438;-1.528;2023-05-07T03:10:52;17.30;90.90
64062;DHT22;50308;47.438;-1.528;2023-05-07T03:13:17;17.30;90.70
64062;DHT22;50308;47.438;-1.528;2023-05-07T03:15:43;17.30;90.80
64062;DHT22;50308;47.438;-1.528;2023-05-07T03:18:09;17.40;90.70
64062;DHT22;50308;47.438;-1.528;2023-05-07T03:20:34;17.30;90.90
64062;DHT22;50308;47.438;-1.528;2023-05-07T03:23:01;17.30;90.80
64062;DHT22;50308;47.438;-1.528;2023-05-07T03:25:27;17.30;90.80
64062;DHT22;50308;47.438;-1.528;2023-05-07T03:27:53;17.30;90.80
64062;DHT22;50308;47.438;-1.528;2023-05-07T03:30:19;17.30;90.80
64062;DHT22;50308;47.438;-1.528;2023-05-07T03:32:45;17.30;90.80
64062;DHT22;50308;47.438;-1.528;2023-05-07T03:35:11;17.30;90.80
64062;DHT22;50308;47.438;-1.528;2023-05-07T03:37:38;17.30;90.80
64062;DHT22;50308;47.438;-1.528;2023-05-07T03:40:04;17.30;90.80
64062;DHT22;50308;47.438;-1.528;2023-05-07T03:42:30;17.30;90.80
64062;DHT22;50308;47.438;-1.528;2023-05-07T03:44:56;17.30;90.70
64062;DHT22;50308;47.438;-1.528;2023-05-07T03:47:22;17.30;90.70
64062;DHT22;50308;47.438;-1.528;2023-05-07T03:49:47;17.40;90.70
64062;DHT22;50308;47.438;-1.528;2023-05-07T03:52:14;17.40;90.70
64062;DHT22;50308;47.438;-1.528;2023-05-07T03:54:40;17.40;90.70
64062;DHT22;50308;47.438;-1.528;2023-05-07T03:57:06;17.40;90.90
64062;DHT22;50308;47.438;-1.528;2023-05-07T03:59:32;17.40;90.80
64062;DHT22;50308;47.438;-1.528;2023-05-07T04:01:58;17.40;90.90
64062;DHT22;50308;47.438;-1.528;2023-05-07T04:04:23;17.30;90.80
64062;DHT22;50308;47.438;-1.528;2023-05-07T04:06:49;17.40;91.00
64062;DHT22;50308;47.438;-1.528;2023-05-07T04:09:15;17.30;90.80
64062;DHT22;50308;47.438;-1.528;2023-05-07T04:11:41;17.40;90.80
64062;DHT22;50308;47.438;-1.528;2023-05-07T04:14:06;17.30;90.80
64062;DHT22;50308;47.438;-1.528;2023-05-07T04:16:32;17.40;90.80
64062;DHT22;50308;47.438;-1.528;2023-05-07T04:18:58;17.40;90.90
64062;DHT22;50308;47.438;-1.528;2023-05-07T04:21:23;17.40;90.90
64062;DHT22;50308;47.438;-1.528;2023-05-07T04:23:49;17.40;90.90
64062;DHT22;50308;47.438;-1.528;2023-05-07T04:26:15;17.30;91.10
64062;DHT22;50308;47.438;-1.528;2023-05-07T04:28:42;17.30;91.00
64062;DHT22;50308;47.438;-1.528;2023-05-07T04:31:08;17.30;91.00
64062;DHT22;50308;47.438;-1.528;2023-05-07T04:33:34;17.30;91.10
64062;DHT22;50308;47.438;-1.528;2023-05-07T04:36:03;17.30;91.20
64062;DHT22;50308;47.438;-1.528;2023-05-07T04:38:32;17.30;91.20
64062;DHT22;50308;47.438;-1.528;2023-05-07T04:41:03;17.30;91.40
64062;DHT22;50308;47.438;-1.528;2023-05-07T04:43:28;17.20;91.50
64062;DHT22;50308;47.438;-1.528;2023-05-07T04:45:54;17.20;91.50
64062;DHT22;50308;47.438;-1.528;2023-05-07T04:48:20;17.20;91.60
64062;DHT22;50308;47.438;-1.528;2023-05-07T04:50:49;17.20;91.40
64062;DHT22;50308;47.438;-1.528;2023-05-07T04:53:16;17.20;91.40
64062;DHT22;50308;47.438;-1.528;2023-05-07T04:55:42;17.20;91.40
64062;DHT22;50308;47.438;-1.528;2023-05-07T04:58:09;17.10;91.20
64062;DHT22;50308;47.438;-1.528;2023-05-07T05:00:34;17.10;91.20
64062;DHT22;50308;47.438;-1.528;2023-05-07T05:03:00;17.10;91.10
64062;DHT22;50308;47.438;-1.528;2023-05-07T05:05:26;17.10;91.00
64062;DHT22;50308;47.438;-1.528;2023-05-07T05:07:51;17.10;91.00
64062;DHT22;50308;47.438;-1.528;2023-05-07T05:10:17;17.00;91.00
64062;DHT22;50308;47.438;-1.528;2023-05-07T05:12:43;17.00;91.10
64062;DHT22;50308;47.438;-1.528;2023-05-07T05:15:11;17.00;91.00
64062;DHT22;50308;47.438;-1.528;2023-05-07T05:17:37;17.00;91.00
64062;DHT22;50308;47.438;-1.528;2023-05-07T05:20:03;17.00;91.00
64062;DHT22;50308;47.438;-1.528;2023-05-07T05:22:29;17.00;90.90
64062;DHT22;50308;47.438;-1.528;2023-05-07T05:24:56;17.00;90.90
64062;DHT22;50308;47.438;-1.528;2023-05-07T05:27:22;17.00;90.80
64062;DHT22;50308;47.438;-1.528;2023-05-07T05:29:48;17.10;90.60
64062;DHT22;50308;47.438;-1.528;2023-05-07T05:32:14;17.10;90.60
64062;DHT22;50308;47.438;-1.528;2023-05-07T05:34:39;17.10;90.60
64062;DHT22;50308;47.438;-1.528;2023-05-07T05:37:05;17.10;90.60
64062;DHT22;50308;47.438;-1.528;2023-05-07T05:39:31;17.10;90.50
64062;DHT22;50308;47.438;-1.528;2023-05-07T05:41:56;17.00;90.40
64062;DHT22;50308;47.438;-1.528;2023-05-07T05:44:22;17.00;90.40
64062;DHT22;50308;47.438;-1.528;2023-05-07T05:46:48;17.00;90.50
64062;DHT22;50308;47.438;-1.528;2023-05-07T05:49:15;17.00;90.40
64062;DHT22;50308;47.438;-1.528;2023-05-07T05:51:41;17.00;90.40
64062;DHT22;50308;47.438;-1.528;2023-05-07T05:54:06;17.00;90.50
64062;DHT22;50308;47.438;-1.528;2023-05-07T05:56:32;17.00;90.50
64062;DHT22;50308;47.438;-1.528;2023-05-07T05:58:58;16.90;90.60
64062;DHT22;50308;47.438;-1.528;2023-05-07T06:01:24;17.00;90.60
64062;DHT22;50308;47.438;-1.528;2023-05-07T06:03:49;17.00;90.60
64062;DHT22;50308;47.438;-1.528;2023-05-07T06:06:15;17.00;90.60
64062;DHT22;50308;47.438;-1.528;2023-05-07T06:08:41;17.10;90.50
64062;DHT22;50308;47.438;-1.528;2023-05-07T06:11:07;17.10;90.60
64062;DHT22;50308;47.438;-1.528;2023-05-07T06:13:32;17.00;90.80
64062;DHT22;50308;47.438;-1.528;2023-05-07T06:15:58;17.00;90.70
64062;DHT22;50308;47.438;-1.528;2023-05-07T06:18:24;17.00;90.80
64062;DHT22;50308;47.438;-1.528;2023-05-07T06:20:52;17.00;90.80
64062;DHT22;50308;47.438;-1.528;2023-05-07T06:23:17;17.00;90.80
64062;DHT22;50308;47.438;-1.528;2023-05-07T06:25:48;17.00;90.80
64062;DHT22;50308;47.438;-1.528;2023-05-07T06:28:14;17.00;91.00
64062;DHT22;50308;47.438;-1.528;2023-05-07T06:30:40;17.00;90.90
64062;DHT22;50308;47.438;-1.528;2023-05-07T06:33:05;17.00;90.90
64062;DHT22;50308;47.438;-1.528;2023-05-07T06:35:31;17.00;91.10
64062;DHT22;50308;47.438;-1.528;2023-05-07T06:37:57;17.00;91.20
64062;DHT22;50308;47.438;-1.528;2023-05-07T06:40:22;17.00;91.20
64062;DHT22;50308;47.438;-1.528;2023-05-07T06:42:48;17.00;91.50
64062;DHT22;50308;47.438;-1.528;2023-05-07T06:45:14;17.00;91.00
64062;DHT22;50308;47.438;-1.528;2023-05-07T06:47:39;17.00;91.20
64062;DHT22;50308;47.438;-1.528;2023-05-07T06:50:05;17.00;91.10
64062;DHT22;50308;47.438;-1.528;2023-05-07T06:52:31;17.10;91.10
64062;DHT22;50308;47.438;-1.528;2023-05-07T06:54:57;17.10;91.10
64062;DHT22;50308;47.438;-1.528;2023-05-07T06:57:23;17.10;91.10
64062;DHT22;50308;47.438;-1.528;2023-05-07T06:59:49;17.10;91.30
64062;DHT22;50308;47.438;-1.528;2023-05-07T07:02:15;17.20;91.20
64062;DHT22;50308;47.438;-1.528;2023-05-07T07:04:40;17.20;91.30
64062;DHT22;50308;47.438;-1.528;2023-05-07T07:07:07;17.20;91.20
64062;DHT22;50308;47.438;-1.528;2023-05-07T07:09:33;17.20;91.20
64062;DHT22;50308;47.438;-1.528;2023-05-07T07:11:59;17.20;91.40
64062;DHT22;50308;47.438;-1.528;2023-05-07T07:14:25;17.20;91.20
64062;DHT22;50308;47.438;-1.528;2023-05-07T07:16:51;17.30;91.20
64062;DHT22;50308;47.438;-1.528;2023-05-07T07:19:16;17.30;91.40
64062;DHT22;50308;47.438;-1.528;2023-05-07T07:21:42;17.30;91.00
64062;DHT22;50308;47.438;-1.528;2023-05-07T07:24:08;17.30;91.30
64062;DHT22;50308;47.438;-1.528;2023-05-07T07:26:33;17.30;91.20
64062;DHT22;50308;47.438;-1.528;2023-05-07T07:28:59;17.30;91.40
64062;DHT22;50308;47.438;-1.528;2023-05-07T07:31:25;17.30;91.40
64062;DHT22;50308;47.438;-1.528;2023-05-07T07:33:51;17.30;91.30
64062;DHT22;50308;47.438;-1.528;2023-05-07T07:36:17;17.30;91.30
64062;DHT22;50308;47.438;-1.528;2023-05-07T07:38:42;17.30;91.40
64062;DHT22;50308;47.438;-1.528;2023-05-07T07:41:08;17.30;91.40
64062;DHT22;50308;47.438;-1.528;2023-05-07T07:43:34;17.30;91.30
64062;DHT22;50308;47.438;-1.528;2023-05-07T07:46:01;17.30;91.30
64062;DHT22;50308;47.438;-1.528;2023-05-07T07:48:26;17.30;90.50
64062;DHT22;50308;47.438;-1.528;2023-05-07T07:50:52;17.30;90.10
64062;DHT22;50308;47.438;-1.528;2023-05-07T07:53:18;17.30;90.80
64062;DHT22;50308;47.438;-1.528;2023-05-07T07:55:44;17.30;91.20
64062;DHT22;50308;47.438;-1.528;2023-05-07T07:58:09;17.30;91.30
64062;DHT22;50308;47.438;-1.528;2023-05-07T08:00:36;17.30;91.00
64062;DHT22;50308;47.438;-1.528;2023-05-07T08:03:02;17.30;91.20
64062;DHT22;50308;47.438;-1.528;2023-05-07T08:05:29;17.30;90.00
64062;DHT22;50308;47.438;-1.528;2023-05-07T08:07:54;17.30;91.00
64062;DHT22;50308;47.438;-1.528;2023-05-07T08:10:21;17.40;91.30
64062;DHT22;50308;47.438;-1.528;2023-05-07T08:12:50;17.30;91.20
64062;DHT22;50308;47.438;-1.528;2023-05-07T08:15:16;17.30;90.90
64062;DHT22;50308;47.438;-1.528;2023-05-07T08:17:42;17.30;90.90
64062;DHT22;50308;47.438;-1.528;2023-05-07T08:20:08;17.40;90.00
64062;DHT22;50308;47.438;-1.528;2023-05-07T08:22:35;17.40;88.90
64062;DHT22;50308;47.438;-1.528;2023-05-07T08:25:00;17.40;89.50
64062;DHT22;50308;47.438;-1.528;2023-05-07T08:27:26;17.40;90.10
64062;DHT22;50308;47.438;-1.528;2023-05-07T08:29:53;17.40;90.80
64062;DHT22;50308;47.438;-1.528;2023-05-07T08:32:18;17.40;88.90
64062;DHT22;50308;47.438;-1.528;2023-05-07T08:34:44;17.40;89.50
64062;DHT22;50308;47.438;-1.528;2023-05-07T08:37:10;17.40;88.80
64062;DHT22;50308;47.438;-1.528;2023-05-07T08:39:35;17.40;90.50
64062;DHT22;50308;47.438;-1.528;2023-05-07T08:42:01;17.40;90.00
64062;DHT22;50308;47.438;-1.528;2023-05-07T08:44:35;17.40;88.70
64062;DHT22;50308;47.438;-1.528;2023-05-07T08:47:06;17.50;88.70
64062;DHT22;50308;47.438;-1.528;2023-05-07T08:49:33;17.50;88.80
64062;DHT22;50308;47.438;-1.528;2023-05-07T08:51:59;17.50;90.30
64062;DHT22;50308;47.438;-1.528;2023-05-07T08:54:26;17.50;89.00
64062;DHT22;50308;47.438;-1.528;2023-05-07T08:56:53;17.50;88.50
64062;DHT22;50308;47.438;-1.528;2023-05-07T08:59:18;17.50;88.30
64062;DHT22;50308;47.438;-1.528;2023-05-07T09:01:44;17.50;88.10
64062;DHT22;50308;47.438;-1.528;2023-05-07T09:04:10;17.40;88.90
64062;DHT22;50308;47.438;-1.528;2023-05-07T09:06:37;17.50;88.50
64062;DHT22;50308;47.438;-1.528;2023-05-07T09:09:07;17.40;88.60
64062;DHT22;50308;47.438;-1.528;2023-05-07T09:11:33;17.50;90.60
64062;DHT22;50308;47.438;-1.528;2023-05-07T09:13:59;17.50;90.60
64062;DHT22;50308;47.438;-1.528;2023-05-07T09:16:29;17.60;89.80
64062;DHT22;50308;47.438;-1.528;2023-05-07T09:18:58;17.50;88.20
64062;DHT22;50308;47.438;-1.528;2023-05-07T09:21:25;17.50;89.30
64062;DHT22;50308;47.438;-1.528;2023-05-07T09:23:52;17.50;88.20
64062;DHT22;50308;47.438;-1.528;2023-05-07T09:26:21;17.50;88.00
64062;DHT22;50308;47.438;-1.528;2023-05-07T09:28:47;17.50;87.90
64062;DHT22;50308;47.438;-1.528;2023-05-07T09:31:13;17.50;88.10
64062;DHT22;50308;47.438;-1.528;2023-05-07T09:33:39;17.50;88.10
64062;DHT22;50308;47.438;-1.528;2023-05-07T09:36:07;17.50;88.50
64062;DHT22;50308;47.438;-1.528;2023-05-07T09:38:33;17.50;87.90
64062;DHT22;50308;47.438;-1.528;2023-05-07T09:41:06;17.50;88.00
64062;DHT22;50308;47.438;-1.528;2023-05-07T09:43:33;17.50;88.20
64062;DHT22;50308;47.438;-1.528;2023-05-07T09:46:12;17.60;88.00
64062;DHT22;50308;47.438;-1.528;2023-05-07T09:48:40;17.60;88.00
64062;DHT22;50308;47.438;-1.528;2023-05-07T09:51:24;17.60;88.00
64062;DHT22;50308;47.438;-1.528;2023-05-07T09:53:53;17.50;88.00
64062;DHT22;50308;47.438;-1.528;2023-05-07T09:56:19;17.60;88.20
64062;DHT22;50308;47.438;-1.528;2023-05-07T09:58:46;17.50;88.00
64062;DHT22;50308;47.438;-1.528;2023-05-07T10:01:13;17.60;88.30
64062;DHT22;50308;47.438;-1.528;2023-05-07T10:03:43;17.60;88.00
64062;DHT22;50308;47.438;-1.528;2023-05-07T10:06:10;17.60;88.00
64062;DHT22;50308;47.438;-1.528;2023-05-07T10:08:36;17.60;88.10
64062;DHT22;50308;47.438;-1.528;2023-05-07T10:11:04;17.60;87.90
64062;DHT22;50308;47.438;-1.528;2023-05-07T10:13:32;17.60;87.80
64062;DHT22;50308;47.438;-1.528;2023-05-07T10:15:58;17.60;87.90
64062;DHT22;50308;47.438;-1.528;2023-05-07T10:18:25;17.60;88.10
64062;DHT22;50308;47.438;-1.528;2023-05-07T10:21:06;17.60;87.90
64062;DHT22;50308;47.438;-1.528;2023-05-07T10:23:33;17.60;87.70
64062;DHT22;50308;47.438;-1.528;2023-05-07T10:26:02;17.60;87.70
64062;DHT22;50308;47.438;-1.528;2023-05-07T10:28:30;17.60;87.70
64062;DHT22;50308;47.438;-1.528;2023-05-07T10:33:34;17.60;88.10
64062;DHT22;50308;47.438;-1.528;2023-05-07T10:36:02;17.60;88.10
64062;DHT22;50308;47.438;-1.528;2023-05-07T10:38:29;17.60;88.10
64062;DHT22;50308;47.438;-1.528;2023-05-07T10:40:55;17.70;88.30
64062;DHT22;50308;47.438;-1.528;2023-05-07T10:43:22;17.60;87.70
64062;DHT22;50308;47.438;-1.528;2023-05-07T10:46:10;17.70;87.60
64062;DHT22;50308;47.438;-1.528;2023-05-07T10:51:34;17.70;87.60
64062;DHT22;50308;47.438;-1.528;2023-05-07T10:56:36;17.70;87.90
64062;DHT22;50308;47.438;-1.528;2023-05-07T11:01:59;17.70;87.90
64062;DHT22;50308;47.438;-1.528;2023-05-07T11:04:27;17.70;88.00
64062;DHT22;50308;47.438;-1.528;2023-05-07T11:15:09;17.70;87.90
64062;DHT22;50308;47.438;-1.528;2023-05-07T11:17:58;17.70;87.50
64062;DHT22;50308;47.438;-1.528;2023-05-07T11:54:17;17.80;87.20
64062;DHT22;50308;47.438;-1.528;2023-05-07T11:56:44;17.80;87.60
64062;DHT22;50308;47.438;-1.528;2023-05-07T11:59:10;17.80;87.00
64062;DHT22;50308;47.438;-1.528;2023-05-07T12:01:36;17.80;87.00
64062;DHT22;50308;47.438;-1.528;2023-05-07T12:04:03;17.80;87.50
64062;DHT22;50308;47.438;-1.528;2023-05-07T12:06:30;17.80;87.40
64062;DHT22;50308;47.438;-1.528;2023-05-07T12:08:56;17.80;86.90
64062;DHT22;50308;47.438;-1.528;2023-05-07T12:11:23;17.80;87.20
64062;DHT22;50308;47.438;-1.528;2023-05-07T12:13:50;17.80;87.50
64062;DHT22;50308;47.438;-1.528;2023-05-07T12:16:17;17.90;87.70
64062;DHT22;50308;47.438;-1.528;2023-05-07T12:18:44;17.90;88.10
64062;DHT22;50308;47.438;-1.528;2023-05-07T12:21:10;17.90;87.70
64062;DHT22;50308;47.438;-1.528;2023-05-07T12:23:36;17.90;87.40
64062;DHT22;50308;47.438;-1.528;2023-05-07T12:26:03;17.80;88.20
64062;DHT22;50308;47.438;-1.528;2023-05-07T12:28:28;17.80;87.20
64062;DHT22;50308;47.438;-1.528;2023-05-07T12:30:56;17.90;87.70
64062;DHT22;50308;47.438;-1.528;2023-05-07T12:33:26;17.90;87.50
64062;DHT22;50308;47.438;-1.528;2023-05-07T12:35:54;17.90;87.30
64062;DHT22;50308;47.438;-1.528;2023-05-07T12:38:21;17.90;87.20
64062;DHT22;50308;47.438;-1.528;2023-05-07T12:40:48;17.90;87.30
64062;DHT22;50308;47.438;-1.528;2023-05-07T12:43:26;17.90;87.40
64062;DHT22;50308;47.438;-1.528;2023-05-07T12:45:57;17.90;87.40
64062;DHT22;50308;47.438;-1.528;2023-05-07T12:48:23;17.90;87.90
64062;DHT22;50308;47.438;-1.528;2023-05-07T12:50:53;17.90;87.50
64062;DHT22;50308;47.438;-1.528;2023-05-07T12:53:21;17.90;87.50
64062;DHT22;50308;47.438;-1.528;2023-05-07T12:55:49;17.90;87.60
64062;DHT22;50308;47.438;-1.528;2023-05-07T13:00:48;17.90;87.50
64062;DHT22;50308;47.438;-1.528;2023-05-07T13:03:34;17.90;87.40
64062;DHT22;50308;47.438;-1.528;2023-05-07T13:06:10;17.90;87.60
64062;DHT22;50308;47.438;-1.528;2023-05-07T13:08:37;17.90;87.90
64062;DHT22;50308;47.438;-1.528;2023-05-07T13:11:08;17.90;88.20
64062;DHT22;50308;47.438;-1.528;2023-05-07T13:13:35;17.90;88.20
64062;DHT22;50308;47.438;-1.528;2023-05-07T13:16:01;17.90;88.80
64062;DHT22;50308;47.438;-1.528;2023-05-07T13:18:30;17.90;89.40
64062;DHT22;50308;47.438;-1.528;2023-05-07T13:20:56;17.90;89.00
64062;DHT22;50308;47.438;-1.528;2023-05-07T13:23:22;18.00;89.40
64062;DHT22;50308;47.438;-1.528;2023-05-07T13:25:48;18.00;88.70
64062;DHT22;50308;47.438;-1.528;2023-05-07T13:28:14;18.00;88.50
64062;DHT22;50308;47.438;-1.528;2023-05-07T13:30:40;17.90;88.80
64062;DHT22;50308;47.438;-1.528;2023-05-07T13:33:08;18.00;89.00
64062;DHT22;50308;47.438;-1.528;2023-05-07T13:35:35;18.00;90.10
64062;DHT22;50308;47.438;-1.528;2023-05-07T13:38:01;18.10;90.10
64062;DHT22;50308;47.438;-1.528;2023-05-07T13:40:26;18.00;89.50
64062;DHT22;50308;47.438;-1.528;2023-05-07T13:42:53;18.00;89.90
64062;DHT22;50308;47.438;-1.528;2023-05-07T13:45:19;18.00;90.20
64062;DHT22;50308;47.438;-1.528;2023-05-07T13:47:45;18.10;90.00
64062;DHT22;50308;47.438;-1.528;2023-05-07T13:50:12;18.20;89.30
64062;DHT22;50308;47.438;-1.528;2023-05-07T13:52:40;18.20;89.70
64062;DHT22;50308;47.438;-1.528;2023-05-07T13:55:06;18.20;90.00
64062;DHT22;50308;47.438;-1.528;2023-05-07T13:57:32;18.20;89.20
64062;DHT22;50308;47.438;-1.528;2023-05-07T13:59:58;18.20;89.80
64062;DHT22;50308;47.438;-1.528;2023-05-07T14:02:24;18.30;89.80
64062;DHT22;50308;47.438;-1.528;2023-05-07T14:04:49;18.30;90.10
64062;DHT22;50308;47.438;-1.528;2023-05-07T14:07:15;18.30;89.90
64062;DHT22;50308;47.438;-1.528;2023-05-07T14:09:41;18.30;90.00
64062;DHT22;50308;47.438;-1.528;2023-05-07T14:12:06;18.30;89.80
64062;DHT22;50308;47.438;-1.528;2023-05-07T14:14:32;18.30;89.50
64062;DHT22;50308;47.438;-1.528;2023-05-07T14:16:58;18.30;89.10
64062;DHT22;50308;47.438;-1.528;2023-05-07T14:19:23;18.30;89.20
64062;DHT22;50308;47.438;-1.528;2023-05-07T14:21:49;18.30;88.80
64062;DHT22;50308;47.438;-1.528;2023-05-07T14:24:15;18.30;89.00
64062;DHT22;50308;47.438;-1.528;2023-05-07T14:26:40;18.30;89.70
64062;DHT22;50308;47.438;-1.528;2023-05-07T14:29:06;18.30;89.30
64062;DHT22;50308;47.438;-1.528;2023-05-07T14:31:32;18.30;89.20
64062;DHT22;50308;47.438;-1.528;2023-05-07T14:33:58;18.30;89.10
64062;DHT22;50308;47.438;-1.528;2023-05-07T14:36:24;18.40;88.80
64062;DHT22;50308;47.438;-1.528;2023-05-07T14:38:52;18.40;89.00
64062;DHT22;50308;47.438;-1.528;2023-05-07T14:41:22;18.40;89.00
64062;DHT22;50308;47.438;-1.528;2023-05-07T14:43:48;18.40;88.70
64062;DHT22;50308;47.438;-1.528;2023-05-07T14:46:18;18.40;88.50
64062;DHT22;50308;47.438;-1.528;2023-05-07T14:48:44;18.40;88.50
64062;DHT22;50308;47.438;-1.528;2023-05-07T14:51:12;18.50;88.50
64062;DHT22;50308;47.438;-1.528;2023-05-07T14:53:38;18.50;88.20
64062;DHT22;50308;47.438;-1.528;2023-05-07T14:56:04;18.50;88.00
64062;DHT22;50308;47.438;-1.528;2023-05-07T14:58:30;18.50;88.00
64062;DHT22;50308;47.438;-1.528;2023-05-07T15:00:56;18.50;88.60
64062;DHT22;50308;47.438;-1.528;2023-05-07T15:03:22;18.40;88.10
64062;DHT22;50308;47.438;-1.528;2023-05-07T15:05:48;18.40;88.30
64062;DHT22;50308;47.438;-1.528;2023-05-07T15:08:17;18.40;88.10
64062;DHT22;50308;47.438;-1.528;2023-05-07T15:10:42;18.40;87.90
64062;DHT22;50308;47.438;-1.528;2023-05-07T15:13:12;18.40;88.60
64062;DHT22;50308;47.438;-1.528;2023-05-07T15:15:41;18.40;88.40
64062;DHT22;50308;47.438;-1.528;2023-05-07T15:18:07;18.40;87.90
64062;DHT22;50308;47.438;-1.528;2023-05-07T15:20:33;18.30;88.00
64062;DHT22;50308;47.438;-1.528;2023-05-07T15:22:58;18.30;87.80
64062;DHT22;50308;47.438;-1.528;2023-05-07T15:25:24;18.30;88.10
64062;DHT22;50308;47.438;-1.528;2023-05-07T15:27:50;18.30;87.80
64062;DHT22;50308;47.438;-1.528;2023-05-07T15:30:15;18.20;87.90
64062;DHT22;50308;47.438;-1.528;2023-05-07T15:32:41;18.20;87.90
64062;DHT22;50308;47.438;-1.528;2023-05-07T15:35:08;18.20;88.20
64062;DHT22;50308;47.438;-1.528;2023-05-07T15:37:34;18.30;88.40
64062;DHT22;50308;47.438;-1.528;2023-05-07T15:40:00;18.20;88.70
64062;DHT22;50308;47.438;-1.528;2023-05-07T15:42:28;18.20;89.00
64062;DHT22;50308;47.438;-1.528;2023-05-07T15:44:53;18.30;88.70
64062;DHT22;50308;47.438;-1.528;2023-05-07T15:47:19;18.20;89.30
64062;DHT22;50308;47.438;-1.528;2023-05-07T15:49:45;18.30;89.60
64062;DHT22;50308;47.438;-1.528;2023-05-07T15:52:10;18.30;89.20
64062;DHT22;50308;47.438;-1.528;2023-05-07T15:54:39;18.40;89.40
64062;DHT22;50308;47.438;-1.528;2023-05-07T15:57:05;18.30;89.10
64062;DHT22;50308;47.438;-1.528;2023-05-07T15:59:32;18.30;89.10
64062;DHT22;50308;47.438;-1.528;2023-05-07T16:01:57;18.40;90.10
64062;DHT22;50308;47.438;-1.528;2023-05-07T16:04:23;18.40;89.30
64062;DHT22;50308;47.438;-1.528;2023-05-07T16:06:49;18.40;89.30